Time;durP1;ratioP1;P1;durP2;ratioP2;P2;SDS_P1;SDS_P2;PMS_P1;PMS_P2;Temp;Humidity;BMP_temperature;BMP_pressure;BME280_temperature;BME280_humidity;BME280_pressure;Samples;Min_cycle;Max_cycle;Signal;HPM_P1;HPM_P2
2021/04/07 00:00:25;;;;;;;4.10;1.77;;;;;;;1.75;81.11;99751.75;3559883;40;20427;-45
2021/04/07 00:02:52;;;;;;;2.50;1.80;;;;;;;1.59;81.77;99755.22;3559557;40;20053;-44
2021/04/07 00:05:34;;;;;;;5.20;1.60;;;;;;;1.93;81.18;99757.63;3559817;40;20052;-44
2021/04/07 00:08:01;;;;;;;2.60;1.45;;;;;;;1.74;81.83;99757.59;3560617;40;20049;-43
2021/04/07 00:10:33;;;;;;;1.95;1.50;;;;;;;1.73;82.30;99763.44;3566976;40;20060;-44
2021/04/07 00:13:00;;;;;;;3.83;1.70;;;;;;;1.67;82.74;99756.47;3565689;40;20042;-48
2021/04/07 00:15:28;;;;;;;2.58;1.40;;;;;;;1.53;83.44;99752.44;3566973;40;20370;-45
2021/04/07 00:17:56;;;;;;;2.72;1.63;;;;;;;1.60;83.21;99758.63;3565650;40;20193;-46
2021/04/07 00:20:24;;;;;;;5.90;1.90;;;;;;;1.73;83.66;99756.72;3566089;40;20049;-47
2021/04/07 00:22:51;;;;;;;4.13;1.60;;;;;;;1.73;83.35;99758.38;3562292;40;20069;-46
2021/04/07 00:25:19;;;;;;;4.20;1.85;;;;;;;1.71;83.39;99758.34;3558020;40;20213;-43
2021/04/07 00:27:54;;;;;;;3.88;1.70;;;;;;;1.86;83.53;99757.31;3555715;40;20078;-45
2021/04/07 00:30:25;;;;;;;3.50;1.80;;;;;;;1.74;83.45;99750.88;3566015;40;20072;-47
2021/04/07 00:32:53;;;;;;;4.85;1.88;;;;;;;1.50;84.30;99750.63;3565564;40;20695;-45
2021/04/07 00:35:20;;;;;;;3.30;1.80;;;;;;;1.56;84.32;99752.56;3565922;40;20529;-45
2021/04/07 00:37:47;;;;;;;6.22;2.00;;;;;;;1.58;83.99;99752.66;3567493;40;20061;-45
2021/04/07 00:40:14;;;;;;;6.05;2.05;;;;;;;1.94;82.62;99748.38;3568330;40;20041;-46
2021/04/07 00:42:42;;;;;;;6.13;2.30;;;;;;;1.79;82.60;99757.00;3566761;40;20089;-47
2021/04/07 00:45:10;;;;;;;3.00;1.70;;;;;;;1.86;82.67;99759.81;3564212;40;20057;-47
2021/04/07 00:47:37;;;;;;;3.17;1.92;;;;;;;1.55;84.13;99762.59;3565780;40;20068;-48
2021/04/07 00:50:05;;;;;;;3.42;1.90;;;;;;;1.63;83.74;99764.69;3565833;40;20076;-47
2021/04/07 00:52:32;;;;;;;5.53;2.13;;;;;;;1.82;83.13;99763.00;3565786;40;20116;-43
2021/04/07 00:55:00;;;;;;;4.40;1.80;;;;;;;1.93;83.17;99761.81;3562427;40;20069;-47
2021/04/07 00:57:27;;;;;;;4.68;2.03;;;;;;;1.72;83.76;99766.75;3560112;40;20085;-45
2021/04/07 00:59:53;;;;;;;4.53;1.67;;;;;;;1.54;84.36;99766.78;3556614;40;20056;-49
2021/04/07 01:02:21;;;;;;;2.75;1.55;;;;;;;1.81;83.07;99776.41;3561286;40;20093;-49
2021/04/07 01:04:49;;;;;;;3.28;1.50;;;;;;;1.74;82.79;99768.53;3553096;40;20077;-45
2021/04/07 01:07:15;;;;;;;4.88;2.13;;;;;;;1.53;84.02;99770.97;3558660;40;20335;-43
2021/04/07 01:09:42;;;;;;;6.28;2.15;;;;;;;1.76;82.25;99774.53;3553960;40;20076;-51
2021/04/07 01:12:09;;;;;;;4.57;2.03;;;;;;;1.72;82.92;99776.84;3562308;40;20878;-46
2021/04/07 01:14:36;;;;;;;7.65;1.90;;;;;;;1.78;83.08;99787.22;3559926;40;20593;-46
2021/04/07 01:17:05;;;;;;;6.82;2.58;;;;;;;1.84;83.08;99784.97;3562240;40;20072;-50
2021/04/07 01:19:32;;;;;;;6.13;1.60;;;;;;;1.84;82.52;99791.69;3562009;40;20078;-46
2021/04/07 01:21:58;;;;;;;5.47;1.88;;;;;;;1.93;82.36;99787.91;3566513;40;20411;-48
2021/04/07 01:26:59;;;;;;;13.25;2.28;;;;;;;1.78;81.06;99784.69;3562632;40;20107;-50
2021/04/07 01:29:26;;;;;;;4.90;1.60;;;;;;;1.52;82.60;99788.53;3565735;40;20315;-48
2021/04/07 01:31:54;;;;;;;4.20;1.83;;;;;;;1.77;81.19;99785.50;3561979;40;20057;-49
2021/04/07 01:34:24;;;;;;;6.15;1.80;;;;;;;1.72;79.38;99787.81;3550945;40;20065;-46
2021/04/07 01:36:51;;;;;;;5.32;1.80;;;;;;;1.82;78.88;99788.25;3550125;40;20058;-47
2021/04/07 01:39:21;;;;;;;6.25;1.50;;;;;;;1.70;79.13;99788.53;3548786;40;20486;-47
2021/04/07 01:41:48;;;;;;;6.50;1.70;;;;;;;1.61;79.71;99788.94;3546434;40;20127;-47
2021/04/07 01:44:17;;;;;;;8.88;1.98;;;;;;;1.79;78.97;99794.84;3548123;40;20052;-47
2021/04/07 01:46:45;;;;;;;3.22;1.52;;;;;;;1.63;79.52;99784.88;3546069;40;20408;-47
2021/04/07 01:49:13;;;;;;;7.93;1.98;;;;;;;1.78;79.23;99793.13;3548579;40;20056;-47
2021/04/07 01:51:41;;;;;;;3.88;1.30;;;;;;;1.81;78.49;99794.94;3546198;40;20400;-49
2021/04/07 01:54:11;;;;;;;7.75;1.60;;;;;;;1.79;78.41;99797.38;3542595;40;20179;-47
2021/04/07 01:56:51;;;;;;;5.13;1.98;;;;;;;1.67;78.81;99796.84;3546573;40;20093;-48
2021/04/07 01:59:21;;;;;;;10.65;2.45;;;;;;;1.63;78.88;99794.97;3544267;40;20104;-46
2021/04/07 02:01:49;;;;;;;4.40;1.95;;;;;;;1.84;78.31;99797.59;3545840;40;20062;-47
2021/04/07 02:04:16;;;;;;;5.68;1.58;;;;;;;1.74;78.41;99795.44;3546916;40;20073;-48
2021/04/07 02:06:43;;;;;;;5.28;1.95;;;;;;;1.66;79.59;99792.56;3540106;40;20104;-46
2021/04/07 02:09:10;;;;;;;5.53;1.75;;;;;;;1.79;78.84;99794.84;3549132;40;20089;-48
2021/04/07 02:11:44;;;;;;;8.18;1.90;;;;;;;1.79;79.05;99796.53;3541395;40;20114;-47
2021/04/07 02:14:21;;;;;;;4.95;2.25;;;;;;;1.56;80.39;99797.09;3543650;40;20592;-50
2021/04/07 02:16:59;;;;;;;10.77;2.22;;;;;;;1.66;79.89;99799.25;3546550;40;20153;-48
2021/04/07 02:19:27;;;;;;;8.55;2.10;;;;;;;1.58;80.31;99803.97;3547560;40;20093;-47
2021/04/07 02:22:04;;;;;;;5.28;2.10;;;;;;;1.80;79.55;99800.75;3546389;40;20090;-47
2021/04/07 02:24:31;;;;;;;6.65;2.15;;;;;;;1.80;79.23;99800.75;3546871;40;20062;-49
2021/04/07 02:27:01;;;;;;;8.43;2.25;;;;;;;1.94;79.40;99811.50;3547358;40;20516;-46
2021/04/07 02:29:28;;;;;;;5.57;2.13;;;;;;;1.85;78.98;99811.06;3547362;40;20079;-47
2021/04/07 02:31:54;;;;;;;6.22;1.95;;;;;;;1.58;80.20;99809.03;3549023;40;20479;-48
2021/04/07 02:34:21;;;;;;;9.98;2.25;;;;;;;1.61;80.27;99815.84;3551261;40;20054;-46
2021/04/07 02:36:47;;;;;;;6.15;2.25;;;;;;;1.59;80.47;99818.31;3550930;40;20400;-49
2021/04/07 02:39:14;;;;;;;7.82;2.35;;;;;;;1.75;79.13;99827.44;3552023;40;20057;-52
2021/04/07 02:41:40;;;;;;;7.18;2.20;;;;;;;1.77;80.19;99824.22;3550712;40;20066;-51
2021/04/07 02:44:07;;;;;;;5.15;1.67;;;;;;;1.69;80.42;99822.13;3548345;40;20085;-49
2021/04/07 02:46:33;;;;;;;5.18;1.70;;;;;;;1.93;78.80;99827.44;3551160;40;20091;-47
2021/04/07 02:49:00;;;;;;;9.75;2.67;;;;;;;1.82;78.84;99836.19;3551391;40;20170;-47
2021/04/07 02:51:26;;;;;;;4.10;1.95;;;;;;;1.69;78.82;99833.09;3555069;40;20120;-49
2021/04/07 02:53:53;;;;;;;5.10;1.85;;;;;;;1.75;78.31;99829.97;3553071;40;20354;-46
2021/04/07 02:56:19;;;;;;;5.78;2.40;;;;;;;1.86;77.95;99833.88;3551321;40;20110;-48
2021/04/07 02:58:46;;;;;;;6.07;2.20;;;;;;;1.66;78.67;99837.97;3551331;40;20061;-47
2021/04/07 03:01:13;;;;;;;3.58;1.92;;;;;;;1.81;78.62;99834.47;3549376;40;20065;-48
2021/04/07 03:03:39;;;;;;;6.78;1.95;;;;;;;1.79;78.42;99837.75;3550153;40;20042;-50
2021/04/07 03:06:06;;;;;;;6.55;2.80;;;;;;;1.71;78.33;99836.56;3551378;40;20053;-51
2021/04/07 03:08:33;;;;;;;7.55;2.22;;;;;;;1.74;78.19;99839.22;3551170;40;20297;-47
2021/04/07 03:10:59;;;;;;;4.85;1.60;;;;;;;1.70;78.13;99832.28;3550755;40;20081;-47
2021/04/07 03:13:26;;;;;;;7.00;2.50;;;;;;;1.64;77.72;99833.66;3551096;40;20117;-48
2021/04/07 03:15:52;;;;;;;9.30;2.00;;;;;;;1.65;78.09;99835.38;3544769;40;20082;-48
2021/04/07 03:18:22;;;;;;;5.75;2.45;;;;;;;1.62;78.24;99848.75;3549510;40;20078;-49
2021/04/07 03:20:50;;;;;;;7.75;2.35;;;;;;;1.74;77.59;99836.69;3550429;40;20057;-47
2021/04/07 03:23:16;;;;;;;5.63;2.42;;;;;;;1.69;78.01;99835.59;3551057;40;20133;-48
2021/04/07 03:25:43;;;;;;;6.70;2.05;;;;;;;1.72;78.08;99842.47;3549429;40;20317;-45
2021/04/07 03:28:09;;;;;;;4.18;2.00;;;;;;;1.76;78.16;99841.81;3551310;40;20058;-45
2021/04/07 03:30:51;;;;;;;10.82;2.40;;;;;;;1.72;78.67;99845.00;3550873;40;20054;-47
2021/04/07 03:33:25;;;;;;;5.75;2.20;;;;;;;1.64;78.36;99843.75;3555466;40;20573;-49
2021/04/07 03:35:52;;;;;;;5.35;1.95;;;;;;;1.53;79.14;99839.06;3557536;40;20053;-47
2021/04/07 03:38:19;;;;;;;9.32;2.40;;;;;;;1.64;78.64;99844.63;3553373;40;20069;-48
2021/04/07 03:40:47;;;;;;;4.80;2.10;;;;;;;1.53;78.54;99840.72;3550993;40;20049;-46
2021/04/07 03:43:15;;;;;;;9.73;2.45;;;;;;;1.68;77.98;99854.06;3550812;40;20084;-46
2021/04/07 03:45:46;;;;;;;5.97;1.85;;;;;;;1.51;79.15;99850.72;3550162;40;20050;-46
2021/04/07 03:48:15;;;;;;;4.03;1.98;;;;;;;1.53;78.77;99855.88;3551260;40;20092;-46
2021/04/07 03:50:43;;;;;;;5.05;2.25;;;;;;;1.68;78.61;99859.13;3550427;40;20086;-50
2021/04/07 03:53:10;;;;;;;5.28;2.58;;;;;;;1.86;77.39;99861.66;3550745;40;20428;-47
2021/04/07 03:55:38;;;;;;;3.70;1.90;;;;;;;1.83;78.23;99863.16;3550367;40;20054;-46
2021/04/07 03:58:05;;;;;;;5.25;1.98;;;;;;;1.68;78.98;99871.72;3550274;40;20074;-46
2021/04/07 04:00:32;;;;;;;5.80;1.95;;;;;;;1.61;79.20;99864.66;3550529;40;20086;-49
2021/04/07 04:02:59;;;;;;;13.95;2.15;;;;;;;1.61;79.04;99867.16;3550555;40;20098;-47
2021/04/07 04:05:26;;;;;;;7.97;2.22;;;;;;;1.77;78.22;99863.75;3551154;40;20058;-48
2021/04/07 04:07:52;;;;;;;7.45;2.55;;;;;;;1.62;78.84;99879.03;3550135;40;20066;-47
2021/04/07 04:10:20;;;;;;;5.22;2.10;;;;;;;1.71;78.88;99883.63;3550869;40;20426;-49
2021/04/07 04:12:47;;;;;;;6.80;2.53;;;;;;;1.87;78.16;99888.59;3549600;40;20392;-46
2021/04/07 04:15:14;;;;;;;6.45;2.22;;;;;;;1.88;77.83;99889.47;3550568;40;20663;-45
2021/04/07 04:17:42;;;;;;;4.93;1.95;;;;;;;1.72;78.46;99888.75;3550019;40;20060;-48
2021/04/07 04:20:10;;;;;;;7.38;1.95;;;;;;;1.84;78.43;99897.69;3550361;40;20050;-49
2021/04/07 04:22:37;;;;;;;4.88;2.22;;;;;;;1.67;79.28;99910.38;3549780;40;20077;-47
2021/04/07 04:25:06;;;;;;;6.82;2.40;;;;;;;1.71;79.51;99909.75;3549134;40;20054;-47
2021/04/07 04:27:33;;;;;;;5.93;2.58;;;;;;;1.65;79.67;99914.47;3550496;40;20097;-46
2021/04/07 04:30:00;;;;;;;5.00;2.33;;;;;;;1.66;80.05;99911.16;3550436;40;20091;-48
2021/04/07 04:32:26;;;;;;;8.77;2.38;;;;;;;1.78;79.61;99908.38;3551001;40;20070;-50
2021/04/07 04:34:53;;;;;;;8.27;2.40;;;;;;;1.70;79.44;99915.56;3549695;40;20097;-47
2021/04/07 04:37:20;;;;;;;7.75;2.20;;;;;;;1.57;80.22;99920.78;3550670;40;20133;-49
2021/04/07 04:39:46;;;;;;;8.02;2.55;;;;;;;1.68;78.84;99927.25;3549962;40;20058;-46
2021/04/07 04:42:13;;;;;;;7.60;2.35;;;;;;;1.71;78.25;99926.50;3550321;40;20125;-46
2021/04/07 04:44:39;;;;;;;6.47;2.47;;;;;;;1.53;79.10;99923.97;3550138;40;20356;-47
2021/04/07 04:47:06;;;;;;;11.00;2.40;;;;;;;1.69;78.83;99928.97;3550799;40;20326;-48
2021/04/07 04:49:48;;;;;;;5.35;2.47;;;;;;;1.81;78.36;99932.91;3549942;40;20098;-48
2021/04/07 04:52:14;;;;;;;2.50;2.17;;;;;;;1.88;78.41;99935.78;3550851;40;20058;-47
2021/04/07 04:54:41;;;;;;;4.90;2.38;;;;;;;1.77;79.04;99930.22;3549947;40;20066;-47
2021/04/07 04:57:07;;;;;;;10.15;2.90;;;;;;;1.87;78.43;99945.81;3547733;40;20439;-48
2021/04/07 04:59:33;;;;;;;10.10;2.90;;;;;;;1.94;78.22;99942.75;3550235;40;20118;-48
2021/04/07 05:02:00;;;;;;;5.55;2.78;;;;;;;1.73;78.87;99946.00;3547775;40;20347;-48
2021/04/07 05:04:27;;;;;;;8.18;2.85;;;;;;;1.78;79.15;99944.56;3544481;40;20145;-47
2021/04/07 05:06:53;;;;;;;5.75;2.70;;;;;;;1.94;79.15;99960.44;3549474;40;20480;-46
2021/04/07 05:09:20;;;;;;;6.97;3.40;;;;;;;1.85;79.61;99947.38;3551143;40;20093;-50
2021/04/07 05:11:50;;;;;;;6.28;2.78;;;;;;;1.40;81.36;99964.53;3551014;40;20058;-48
2021/04/07 05:14:17;;;;;;;9.73;3.20;;;;;;;1.79;80.67;99961.44;3552208;40;20277;-47
2021/04/07 05:16:44;;;;;;;6.60;2.97;;;;;;;1.94;79.80;99973.94;3551801;40;20058;-48
2021/04/07 05:19:11;;;;;;;8.80;2.35;;;;;;;2.00;79.41;99974.25;3552496;40;20414;-48
2021/04/07 05:21:37;;;;;;;8.40;3.10;;;;;;;1.84;80.28;99974.28;3551667;40;20097;-50
2021/04/07 05:24:04;;;;;;;14.90;6.50;;;;;;;1.89;80.42;99984.59;3551908;40;20054;-47
2021/04/07 05:26:32;;;;;;;6.20;3.50;;;;;;;1.75;80.38;99982.25;3551955;40;20090;-48
2021/04/07 05:28:58;;;;;;;5.20;3.25;;;;;;;1.81;80.32;99988.41;3552027;40;20115;-47
2021/04/07 05:31:24;;;;;;;12.23;3.67;;;;;;;1.83;79.98;99987.69;3552627;40;20276;-46
2021/04/07 05:33:51;;;;;;;6.88;3.20;;;;;;;2.05;78.59;99999.72;3551978;40;20403;-46
2021/04/07 05:36:19;;;;;;;7.47;2.92;;;;;;;1.92;78.88;99993.19;3549442;40;20080;-49
2021/04/07 05:38:45;;;;;;;9.55;3.10;;;;;;;1.99;78.75;100007.84;3546286;40;20460;-45
2021/04/07 05:41:12;;;;;;;9.45;3.17;;;;;;;2.04;78.98;100011.47;3550212;40;20434;-48
2021/04/07 05:43:39;;;;;;;6.18;3.35;;;;;;;2.14;78.43;100007.72;3552129;40;20071;-45
2021/04/07 05:46:08;;;;;;;7.13;2.88;;;;;;;2.33;77.78;100001.88;3551992;40;20093;-49
2021/04/07 05:48:35;;;;;;;7.30;3.05;;;;;;;2.13;78.14;100010.19;3551763;40;20038;-46
2021/04/07 05:51:03;;;;;;;9.75;3.20;;;;;;;2.30;77.79;100012.69;3552225;40;20054;-49
2021/04/07 05:53:30;;;;;;;11.43;3.58;;;;;;;2.08;77.97;100009.97;3552176;40;20069;-49
2021/04/07 05:56:01;;;;;;;8.00;3.17;;;;;;;2.27;77.19;100007.53;3551771;40;20050;-50
2021/04/07 05:58:29;;;;;;;6.32;2.92;;;;;;;2.13;76.22;100006.00;3552481;40;20046;-48
2021/04/07 06:00:56;;;;;;;7.47;2.65;;;;;;;2.06;77.25;100016.59;3552434;40;20071;-49
2021/04/07 06:03:23;;;;;;;6.85;2.58;;;;;;;2.26;76.13;100022.59;3552467;40;20058;-49
2021/04/07 06:05:51;;;;;;;8.05;2.50;;;;;;;2.19;75.68;100018.91;3553969;40;20061;-46
2021/04/07 06:08:18;;;;;;;9.32;2.30;;;;;;;2.44;75.35;100027.66;3548686;40;20104;-48
2021/04/07 06:10:48;;;;;;;8.55;2.53;;;;;;;2.43;74.77;100030.97;3546588;40;20110;-49
2021/04/07 06:13:19;;;;;;;9.70;3.42;;;;;;;2.47;74.32;100026.13;3548306;40;20118;-47
2021/04/07 06:15:46;;;;;;;10.05;2.75;;;;;;;2.53;74.43;100040.72;3546705;40;20057;-46
2021/04/07 06:18:14;;;;;;;10.15;2.80;;;;;;;2.52;74.42;100039.84;3548849;40;20069;-46
2021/04/07 06:20:43;;;;;;;9.43;2.42;;;;;;;2.51;74.91;100045.72;3545615;40;20043;-48
2021/04/07 06:23:12;;;;;;;11.63;2.47;;;;;;;2.60;74.37;100034.31;3547212;40;20054;-48
2021/04/07 06:25:40;;;;;;;7.82;2.15;;;;;;;2.75;74.34;100028.28;3549551;40;20056;-52
2021/04/07 06:28:09;;;;;;;7.70;2.55;;;;;;;2.28;74.09;100042.09;3551277;40;20146;-48
2021/04/07 06:30:41;;;;;;;11.00;2.55;;;;;;;2.81;74.05;100042.88;3556228;40;20086;-49
2021/04/07 06:33:15;;;;;;;10.70;2.60;;;;;;;2.77;72.91;100038.47;3548810;40;20065;-46
2021/04/07 06:35:45;;;;;;;6.30;2.45;;;;;;;2.85;72.75;100039.69;3548081;40;20510;-49
2021/04/07 06:38:15;;;;;;;8.10;2.83;;;;;;;3.30;71.12;100040.03;3550185;40;20057;-49
2021/04/07 06:40:43;;;;;;;9.82;2.85;;;;;;;3.45;70.73;100045.75;3549622;40;20050;-47
2021/04/07 06:43:12;;;;;;;9.65;2.67;;;;;;;3.76;69.74;100047.06;3551494;40;20060;-46
2021/04/07 06:45:41;;;;;;;8.43;2.50;;;;;;;3.67;70.27;100059.34;3551454;40;20221;-46
2021/04/07 06:48:16;;;;;;;9.30;2.40;;;;;;;3.53;70.15;100054.53;3556238;40;20148;-46
2021/04/07 06:50:53;;;;;;;12.95;2.78;;;;;;;3.45;70.67;100060.06;3545352;40;20046;-48
2021/04/07 06:53:28;;;;;;;9.77;2.70;;;;;;;3.46;70.47;100050.00;3548178;40;20168;-49
2021/04/07 06:55:55;;;;;;;9.85;2.80;;;;;;;3.56;69.78;100059.75;3548268;40;20381;-51
2021/04/07 06:58:22;;;;;;;9.13;2.50;;;;;;;3.72;69.88;100061.28;3548686;40;20452;-48
2021/04/07 07:00:50;;;;;;;10.75;2.58;;;;;;;3.44;70.64;100063.41;3541308;40;20081;-49
2021/04/07 07:03:18;;;;;;;4.82;2.28;;;;;;;3.78;69.84;100068.25;3549817;40;20128;-49
2021/04/07 07:05:54;;;;;;;7.95;2.25;;;;;;;3.59;69.23;100064.06;3546328;40;20085;-46
2021/04/07 07:08:37;;;;;;;11.77;2.67;;;;;;;4.08;67.77;100056.88;3546209;40;20045;-48
2021/04/07 07:11:17;;;;;;;6.97;2.08;;;;;;;4.00;68.14;100070.91;3545412;40;20061;-47
2021/04/07 07:13:44;;;;;;;8.93;2.10;;;;;;;3.82;68.48;100062.53;3540945;40;20473;-45
2021/04/07 07:16:13;;;;;;;4.57;1.67;;;;;;;3.85;67.99;100074.47;3546657;40;20049;-51
2021/04/07 07:18:43;;;;;;;7.30;2.38;;;;;;;3.54;68.70;100068.94;3551323;40;20070;-51
2021/04/07 07:21:16;;;;;;;8.50;2.08;;;;;;;3.67;68.72;100074.53;3551513;40;20083;-47
2021/04/07 07:23:47;;;;;;;8.98;2.20;;;;;;;3.41;69.59;100075.91;3543695;40;20041;-50
2021/04/07 07:26:18;;;;;;;7.53;2.35;;;;;;;3.47;69.37;100078.75;3544384;40;20058;-48
2021/04/07 07:28:51;;;;;;;11.63;3.20;;;;;;;3.65;68.45;100082.06;3543880;40;20045;-50
2021/04/07 07:31:19;;;;;;;7.72;2.05;;;;;;;3.40;70.14;100091.91;3577031;23;20085;-48
2021/04/07 07:33:46;;;;;;;10.32;2.97;;;;;;;3.37;69.66;100086.69;3567651;40;20096;-46
2021/04/07 07:36:13;;;;;;;10.05;2.65;;;;;;;3.31;74.08;100085.63;3565200;40;20053;-42
2021/04/07 07:38:48;;;;;;;12.48;3.08;;;;;;;3.10;78.86;100093.91;3565557;40;20053;-43
2021/04/07 07:41:19;;;;;;;11.85;3.47;;;;;;;2.79;79.84;100090.84;3556890;40;20050;-43
2021/04/07 07:43:46;;;;;;;7.30;3.08;;;;;;;3.16;79.91;100099.25;3552457;40;20058;-43
2021/04/07 07:46:15;;;;;;;11.93;3.80;;;;;;;2.63;83.20;100103.53;3551765;40;20160;-44
2021/04/07 07:48:43;;;;;;;8.65;3.00;;;;;;;2.41;85.24;100103.31;3550979;40;20093;-42
2021/04/07 07:51:17;;;;;;;9.65;3.28;;;;;;;2.75;85.13;100110.84;3555032;40;20041;-44
2021/04/07 07:53:46;;;;;;;11.65;2.67;;;;;;;3.22;85.17;100118.09;3552493;40;20058;-42
2021/04/07 07:56:19;;;;;;;13.63;3.65;;;;;;;3.27;86.07;100116.66;3551412;40;20058;-43
2021/04/07 07:58:50;;;;;;;13.00;3.22;;;;;;;3.71;79.79;100121.97;3550937;40;20050;-42
2021/04/07 08:01:45;;;;;;;5.85;2.72;;;;;;;3.55;81.93;100122.94;3550427;40;20139;-44
2021/04/07 08:04:12;;;;;;;11.27;3.20;;;;;;;3.50;78.40;100115.16;3548341;40;20050;-44
2021/04/07 08:06:39;;;;;;;10.82;3.55;;;;;;;3.86;78.97;100120.09;3550134;40;20058;-43
2021/04/07 08:09:07;;;;;;;14.65;3.00;;;;;;;3.60;75.00;100123.16;3551479;40;20076;-43
2021/04/07 08:11:34;;;;;;;9.02;2.10;;;;;;;3.40;75.37;100127.34;3550877;40;20353;-42
2021/04/07 08:14:01;;;;;;;9.23;2.70;;;;;;;4.01;73.97;100125.81;3551556;40;20078;-42
2021/04/07 08:16:28;;;;;;;12.38;3.42;;;;;;;3.98;73.78;100124.84;3551346;40;20049;-45
2021/04/07 08:18:56;;;;;;;8.23;2.80;;;;;;;4.24;73.80;100134.38;3550422;40;20058;-44
2021/04/07 08:21:23;;;;;;;7.60;2.85;;;;;;;4.24;71.87;100133.53;3557387;40;20064;-42
2021/04/07 08:24:03;;;;;;;9.98;2.30;;;;;;;4.25;72.29;100135.25;3556538;40;20105;-42
2021/04/07 08:26:31;;;;;;;10.15;2.40;;;;;;;4.37;69.70;100140.84;3550864;40;20054;-45
2021/04/07 08:28:59;;;;;;;9.15;2.60;;;;;;;4.51;71.04;100136.34;3550847;40;20090;-40
2021/04/07 08:31:27;;;;;;;13.75;2.38;;;;;;;4.54;69.12;100142.41;3552181;40;20427;-46
2021/04/07 08:33:56;;;;;;;8.48;2.55;;;;;;;4.76;68.18;100138.19;3550323;40;20051;-45
2021/04/07 08:36:28;;;;;;;8.40;1.85;;;;;;;5.02;69.58;100147.69;3551339;40;20420;-43
2021/04/07 08:39:05;;;;;;;9.27;2.00;;;;;;;5.23;66.19;100137.53;3550250;40;20538;-45
2021/04/07 08:41:33;;;;;;;6.55;2.20;;;;;;;5.24;65.92;100141.78;3551178;40;20060;-47
2021/04/07 08:44:01;;;;;;;11.38;3.28;;;;;;;5.22;64.47;100150.13;3550906;40;20049;-44
2021/04/07 08:46:38;;;;;;;12.30;3.08;;;;;;;4.90;65.43;100159.03;3551520;40;20082;-45
2021/04/07 08:49:05;;;;;;;8.95;2.60;;;;;;;5.48;63.45;100146.91;3550842;40;20046;-46
2021/04/07 08:51:34;;;;;;;10.65;3.63;;;;;;;5.44;64.40;100155.22;3552436;40;20050;-43
2021/04/07 08:54:01;;;;;;;10.68;2.72;;;;;;;4.97;63.50;100154.25;3552919;40;20045;-47
2021/04/07 08:56:30;;;;;;;9.80;2.75;;;;;;;5.49;63.67;100152.84;3552538;40;20034;-44
2021/04/07 08:59:03;;;;;;;8.35;2.45;;;;;;;5.36;63.21;100146.44;3552011;40;20057;-45
2021/04/07 09:01:34;;;;;;;12.02;2.58;;;;;;;5.51;62.80;100161.41;3551238;40;20038;-43
2021/04/07 09:04:18;;;;;;;8.50;3.00;;;;;;;5.33;63.75;100144.66;3550616;40;20113;-48
2021/04/07 09:07:00;;;;;;;6.10;2.70;;;;;;;5.46;61.21;100152.75;3549339;40;20097;-47
2021/04/07 09:09:34;;;;;;;10.18;2.65;;;;;;;5.35;60.55;100160.81;3551557;40;20049;-45
2021/04/07 09:12:01;;;;;;;10.35;2.35;;;;;;;5.81;60.60;100165.06;3551991;40;20474;-45
2021/04/07 09:14:29;;;;;;;6.20;2.05;;;;;;;5.88;58.19;100164.47;3551991;40;20049;-44
2021/04/07 09:17:03;;;;;;;8.50;2.80;;;;;;;6.06;57.47;100171.06;3550496;40;20086;-43
2021/04/07 09:19:33;;;;;;;12.05;3.13;;;;;;;6.42;57.03;100171.44;3557231;40;20046;-47
2021/04/07 09:22:06;;;;;;;9.23;2.60;;;;;;;6.36;55.97;100186.50;3552501;40;20412;-46
2021/04/07 09:24:51;;;;;;;10.52;2.58;;;;;;;6.53;57.62;100176.91;3552059;40;20794;-43
2021/04/07 09:27:22;;;;;;;9.02;2.83;;;;;;;6.73;55.18;100185.19;3545966;40;20063;-44
2021/04/07 09:29:49;;;;;;;7.93;2.65;;;;;;;6.61;54.19;100183.13;3550922;40;20157;-47
2021/04/07 09:32:17;;;;;;;6.35;2.28;;;;;;;6.32;54.71;100177.03;3551239;40;20046;-49
2021/04/07 09:34:45;;;;;;;4.43;3.05;;;;;;;7.45;53.54;100180.69;3549298;40;20076;-45
2021/04/07 09:37:13;;;;;;;8.85;2.72;;;;;;;7.57;52.30;100187.81;3551843;40;20135;-45
2021/04/07 09:39:40;;;;;;;7.95;2.60;;;;;;;6.96;53.96;100188.47;3546662;40;20061;-46
2021/04/07 09:42:08;;;;;;;8.68;3.05;;;;;;;6.76;53.00;100178.53;3543884;40;20057;-43
2021/04/07 09:44:35;;;;;;;8.00;2.90;;;;;;;6.51;53.66;100181.06;3551014;40;20058;-44
2021/04/07 09:47:04;;;;;;;6.15;2.08;;;;;;;6.89;52.42;100178.13;3551322;40;20097;-47
2021/04/07 09:49:35;;;;;;;7.65;2.45;;;;;;;6.75;52.94;100184.44;3551416;40;20412;-43
2021/04/07 09:52:01;;;;;;;9.40;2.67;;;;;;;7.01;52.37;100186.94;3549120;40;20078;-43
2021/04/07 09:54:35;;;;;;;9.02;2.22;;;;;;;7.82;51.69;100194.50;3550539;40;20090;-47
2021/04/07 09:57:06;;;;;;;13.10;2.55;;;;;;;8.07;49.05;100188.41;3551624;40;20057;-46
2021/04/07 09:59:40;;;;;;;7.55;1.80;;;;;;;9.53;43.91;100177.56;3552236;40;20064;-44
2021/04/07 10:02:09;;;;;;;7.25;2.08;;;;;;;11.27;41.52;100188.41;3551761;40;20158;-43
2021/04/07 10:04:41;;;;;;;6.55;1.85;;;;;;;10.38;41.59;100188.66;3551281;40;20390;-41
2021/04/07 10:07:10;;;;;;;7.85;2.53;;;;;;;12.34;39.00;100196.63;3546231;40;20086;-46
2021/04/07 10:09:39;;;;;;;7.85;2.30;;;;;;;14.95;34.39;100195.50;3551280;40;20068;-41
2021/04/07 10:12:07;;;;;;;5.70;2.15;;;;;;;12.22;35.19;100205.94;3552741;40;20046;-44
2021/04/07 10:14:34;;;;;;;8.00;2.20;;;;;;;13.91;33.40;100202.09;3551211;40;20359;-41
2021/04/07 10:17:30;;;;;;;6.53;1.70;;;;;;;13.66;32.87;100198.56;3551456;40;20073;-44
2021/04/07 10:20:15;;;;;;;5.75;1.58;;;;;;;12.00;34.80;100208.25;3552119;40;20140;-42
2021/04/07 10:22:43;;;;;;;4.35;1.63;;;;;;;10.62;37.98;100207.00;3550868;40;20300;-43
2021/04/07 10:25:16;;;;;;;5.55;1.58;;;;;;;9.44;40.57;100193.56;3553045;40;20050;-41
2021/04/07 10:27:44;;;;;;;5.75;1.63;;;;;;;9.44;40.74;100196.97;3545917;40;20501;-42
2021/04/07 10:30:14;;;;;;;6.90;2.10;;;;;;;8.49;41.28;100204.03;3551274;40;20050;-40
2021/04/07 10:32:44;;;;;;;4.78;1.60;;;;;;;9.21;40.47;100199.84;3552966;40;20811;-44
2021/04/07 10:35:32;;;;;;;6.88;1.90;;;;;;;8.92;39.97;100192.38;3547861;40;20110;-44
2021/04/07 10:38:04;;;;;;;2.15;1.20;;;;;;;8.92;38.26;100200.88;3552773;40;20042;-43
2021/04/07 10:40:34;;;;;;;3.17;1.02;;;;;;;10.89;35.29;100201.50;3551330;40;20041;-44
2021/04/07 10:43:20;;;;;;;4.07;1.48;;;;;;;13.98;29.90;100199.56;3550389;40;20057;-42
2021/04/07 10:46:03;;;;;;;5.65;1.55;;;;;;;17.14;27.85;100204.88;3551415;40;20370;-42
2021/04/07 10:48:37;;;;;;;2.20;1.20;;;;;;;16.55;25.78;100207.06;3548603;40;20041;-42
2021/04/07 10:51:06;;;;;;;6.20;1.90;;;;;;;15.89;28.13;100206.50;3551542;40;20084;-43
2021/04/07 10:53:42;;;;;;;4.60;1.50;;;;;;;17.87;25.95;100205.88;3553362;40;20102;-44
2021/04/07 10:56:17;;;;;;;4.40;1.73;;;;;;;17.31;25.28;100209.91;3544717;40;20242;-44
2021/04/07 10:58:44;;;;;;;5.20;1.30;;;;;;;14.31;27.03;100204.84;3543109;40;20082;-42
2021/04/07 11:01:11;;;;;;;5.03;1.80;;;;;;;13.71;29.77;100190.00;3549137;40;20030;-42
2021/04/07 11:03:47;;;;;;;6.50;1.48;;;;;;;11.26;32.81;100198.66;3553282;40;20330;-45
2021/04/07 11:06:20;;;;;;;5.20;1.27;;;;;;;10.36;35.65;100195.47;3553907;40;20094;-44
2021/04/07 11:08:47;;;;;;;8.20;2.10;;;;;;;10.49;35.83;100201.66;3553741;40;20093;-45
2021/04/07 11:11:25;;;;;;;8.57;2.22;;;;;;;10.54;34.71;100197.47;3553732;40;20105;-41
2021/04/07 11:13:53;;;;;;;8.20;2.88;;;;;;;10.08;38.25;100207.69;3552473;40;20070;-42
2021/04/07 11:16:33;;;;;;;7.20;2.60;;;;;;;11.55;34.95;100219.56;3552609;40;20057;-45
2021/04/07 11:19:01;;;;;;;7.53;2.05;;;;;;;11.27;36.09;100213.19;3547756;40;20351;-46
2021/04/07 11:21:28;;;;;;;5.38;1.65;;;;;;;10.21;36.19;100208.78;3553188;40;20324;-46
2021/04/07 11:23:56;;;;;;;3.78;1.55;;;;;;;10.79;35.58;100209.88;3553387;40;20047;-41
2021/04/07 11:26:24;;;;;;;8.85;2.05;;;;;;;11.09;36.03;100218.88;3553878;40;20073;-41
2021/04/07 11:28:51;;;;;;;6.50;1.35;;;;;;;12.20;34.00;100207.63;3551990;40;20732;-43
2021/04/07 11:31:22;;;;;;;4.88;1.58;;;;;;;14.99;29.71;100224.72;3551773;40;20063;-45
2021/04/07 11:44:30;;;;;;;4.43;1.58;;;;;;;10.60;37.46;100218.06;3552480;40;20050;-44
2021/04/07 11:46:59;;;;;;;2.80;1.73;;;;;;;10.02;38.61;100222.03;3551958;40;20069;-43
2021/04/07 11:49:26;;;;;;;3.47;1.55;;;;;;;9.92;38.40;100221.84;3553822;40;20062;-43
2021/04/07 11:51:53;;;;;;;5.05;1.92;;;;;;;10.44;37.64;100217.81;3551877;40;20053;-42
2021/04/07 11:54:20;;;;;;;4.93;1.50;;;;;;;11.57;36.27;100226.47;3550995;40;20060;-43
2021/04/07 11:56:47;;;;;;;6.10;1.00;;;;;;;10.48;37.28;100226.38;3550319;40;20097;-44